createdAt,value
2022-09-20T00:01:07.781Z,12.00
2022-09-20T00:03:36.753Z,11.90
2022-09-20T00:06:05.859Z,11.80
2022-09-20T00:08:34.291Z,11.90
2022-09-20T00:11:04.089Z,11.80
2022-09-20T00:13:32.329Z,11.80
2022-09-20T00:16:01.079Z,11.80
2022-09-20T00:18:28.970Z,11.70
2022-09-20T00:20:56.833Z,11.70
2022-09-20T00:23:24.705Z,11.70
2022-09-20T00:25:56.992Z,11.70
2022-09-20T00:28:27.210Z,11.70
2022-09-20T00:30:56.407Z,11.70
2022-09-20T00:33:45.944Z,11.70
2022-09-20T00:36:12.992Z,11.70
2022-09-20T00:38:40.878Z,11.70
2022-09-20T00:41:09.097Z,11.70
2022-09-20T00:43:40.246Z,11.70
2022-09-20T00:46:21.868Z,11.70
2022-09-20T00:48:51.485Z,11.70
2022-09-20T00:51:24.429Z,11.60
2022-09-20T00:53:54.006Z,11.60
2022-09-20T00:56:25.521Z,11.50
2022-09-20T00:59:01.486Z,11.50
2022-09-20T01:01:29.892Z,11.50
2022-09-20T01:03:58.945Z,11.50
2022-09-20T01:06:26.926Z,11.50
2022-09-20T01:08:57.178Z,11.80
2022-09-20T01:11:25.965Z,11.40
2022-09-20T01:13:55.227Z,11.40
2022-09-20T01:16:24.952Z,11.40
2022-09-20T01:18:53.965Z,11.40
2022-09-20T01:21:22.580Z,11.30
2022-09-20T01:23:57.405Z,12.40
2022-09-20T01:26:38.524Z,11.30
2022-09-20T01:29:19.077Z,11.20
2022-09-20T01:31:53.675Z,11.20
2022-09-20T01:34:29.085Z,11.20
2022-09-20T01:37:07.734Z,11.20
2022-09-20T01:39:42.692Z,11.20
2022-09-20T01:42:13.440Z,11.10
2022-09-20T01:44:53.211Z,11.10
2022-09-20T01:47:32.526Z,11.00
2022-09-20T01:50:08.603Z,11.10
2022-09-20T01:53:14.001Z,11.10
2022-09-20T01:56:11.616Z,11.00
2022-09-20T01:59:23.660Z,10.90
2022-09-20T02:02:10.611Z,10.90
2022-09-20T02:04:58.980Z,10.90
2022-09-20T02:07:59.396Z,10.90
2022-09-20T02:11:07.016Z,10.80
2022-09-20T02:13:59.540Z,10.90
2022-09-20T02:16:51.446Z,10.90
2022-09-20T02:19:52.914Z,10.80
2022-09-20T02:22:44.396Z,10.80
2022-09-20T02:25:47.632Z,10.80
2022-09-20T02:28:28.785Z,10.80
2022-09-20T02:31:10.176Z,10.80
2022-09-20T02:33:58.498Z,11.20
2022-09-20T02:36:40.277Z,10.70
2022-09-20T02:39:13.913Z,10.70
2022-09-20T02:42:00.234Z,10.70
2022-09-20T02:44:47.096Z,10.70
2022-09-20T02:47:22.825Z,10.70
2022-09-20T02:50:04.516Z,10.60
2022-09-20T02:52:41.947Z,10.60
2022-09-20T02:55:15.573Z,10.60
2022-09-20T02:57:51.766Z,10.60
2022-09-20T03:00:24.709Z,10.60
2022-09-20T03:03:09.938Z,10.60
2022-09-20T03:05:49.927Z,10.50
2022-09-20T03:08:34.407Z,10.50
2022-09-20T03:11:13.226Z,10.90
2022-09-20T03:14:02.514Z,10.50
2022-09-20T03:16:40.299Z,10.50
2022-09-20T03:19:16.858Z,10.50
2022-09-20T03:22:00.781Z,10.50
2022-09-20T03:24:43.285Z,10.60
2022-09-20T03:27:20.341Z,10.60
2022-09-20T03:30:06.363Z,10.60
2022-09-20T03:32:46.757Z,10.70
2022-09-20T03:35:36.709Z,11.00
2022-09-20T03:38:20.624Z,10.80
2022-09-20T03:41:27.131Z,10.70
2022-09-20T03:44:17.263Z,10.70
2022-09-20T03:46:47.108Z,10.70
2022-09-20T03:49:48.047Z,10.80
2022-09-20T03:52:31.248Z,10.80
2022-09-20T03:55:27.640Z,11.00
2022-09-20T03:58:24.684Z,10.80
2022-09-20T04:01:04.487Z,10.80
2022-09-20T04:03:46.757Z,10.90
2022-09-20T04:06:36.387Z,10.90
2022-09-20T04:09:26.695Z,10.90
2022-09-20T04:12:03.268Z,11.00
2022-09-20T04:14:41.567Z,11.00
2022-09-20T04:17:25.415Z,11.10
2022-09-20T04:20:02.842Z,11.10
2022-09-20T04:22:31.221Z,11.10
2022-09-20T04:25:05.400Z,11.50
2022-09-20T04:27:39.137Z,11.20
2022-09-20T04:30:19.402Z,11.10
2022-09-20T04:32:52.586Z,11.10
2022-09-20T04:35:54.934Z,11.10
2022-09-20T04:38:23.414Z,11.20
2022-09-20T04:41:11.959Z,11.20
2022-09-20T04:44:13.268Z,12.10
2022-09-20T04:47:12.585Z,11.20
2022-09-20T04:50:22.304Z,11.20
2022-09-20T04:53:22.285Z,11.20
2022-09-20T04:55:52.494Z,11.20
2022-09-20T04:58:36.929Z,11.30
2022-09-20T05:01:36.687Z,11.30
2022-09-20T05:04:52.109Z,11.30
2022-09-20T05:07:57.084Z,11.30
2022-09-20T05:10:50.357Z,11.30
2022-09-20T05:13:31.347Z,11.40
2022-09-20T05:16:05.265Z,11.40
2022-09-20T05:19:10.178Z,11.40
2022-09-20T05:21:53.817Z,11.40
2022-09-20T05:24:52.899Z,11.40
2022-09-20T05:27:34.657Z,11.50
2022-09-20T05:30:08.943Z,11.50
2022-09-20T05:32:45.148Z,11.50
2022-09-20T05:35:19.992Z,11.40
2022-09-20T05:37:55.567Z,11.40
2022-09-20T05:40:31.461Z,11.50
2022-09-20T05:43:07.431Z,11.50
2022-09-20T05:45:50.542Z,11.50
2022-09-20T05:48:27.313Z,11.50
2022-09-20T05:51:03.743Z,11.50
2022-09-20T05:54:05.203Z,11.50
2022-09-20T05:56:43.129Z,11.50
2022-09-20T05:59:23.734Z,11.50
2022-09-20T06:02:08.256Z,11.50
2022-09-20T06:04:43.853Z,11.50
2022-09-20T06:07:22.898Z,11.50
2022-09-20T06:10:17.002Z,11.50
2022-09-20T06:12:55.045Z,11.50
2022-09-20T06:15:29.576Z,11.60
2022-09-20T06:18:08.609Z,11.60
2022-09-20T06:20:47.070Z,11.60
2022-09-20T06:23:15.585Z,11.60
2022-09-20T06:25:53.654Z,11.70
2022-09-20T06:28:23.898Z,11.70
2022-09-20T06:30:53.858Z,11.70
2022-09-20T06:33:23.893Z,11.70
2022-09-20T06:35:58.993Z,11.70
2022-09-20T06:39:08.563Z,11.80
2022-09-20T06:41:38.471Z,11.80
2022-09-20T06:44:07.065Z,11.90
2022-09-20T06:46:37.070Z,11.90
2022-09-20T06:49:08.237Z,12.00
2022-09-20T06:51:38.283Z,12.00
2022-09-20T06:54:08.898Z,12.00
2022-09-20T06:56:38.485Z,12.10
2022-09-20T06:59:10.382Z,12.10
2022-09-20T07:01:38.461Z,12.20
2022-09-20T07:04:06.701Z,12.20
2022-09-20T07:06:35.012Z,12.20
2022-09-20T07:09:03.082Z,12.30
2022-09-20T07:11:34.904Z,12.30
2022-09-20T07:14:05.169Z,12.30
2022-09-20T07:16:33.136Z,12.40
2022-09-20T07:19:01.026Z,12.50
2022-09-20T07:21:28.889Z,12.50
2022-09-20T07:23:57.925Z,12.60
2022-09-20T07:26:28.387Z,12.60
2022-09-20T07:28:57.346Z,12.70
2022-09-20T07:31:28.611Z,12.70
2022-09-20T07:33:56.853Z,12.80
2022-09-20T07:36:24.910Z,12.80
2022-09-20T07:38:53.685Z,12.80
2022-09-20T07:41:22.900Z,12.90
2022-09-20T07:43:52.271Z,13.60
2022-09-20T07:46:22.154Z,13.00
2022-09-20T07:48:52.357Z,12.90
2022-09-20T07:51:20.309Z,12.90
2022-09-20T07:53:48.302Z,12.90
2022-09-20T07:56:18.371Z,13.00
2022-09-20T07:58:52.123Z,13.00
2022-09-20T08:01:21.097Z,13.10
2022-09-20T08:03:49.089Z,13.10
2022-09-20T08:06:21.200Z,13.10
2022-09-20T08:08:49.396Z,13.60
2022-09-20T08:11:19.159Z,13.10
2022-09-20T08:14:05.888Z,13.20
2022-09-20T08:16:40.006Z,13.10
2022-09-20T08:19:08.232Z,13.20
2022-09-20T08:21:38.833Z,13.20
2022-09-20T08:24:07.267Z,13.20
2022-09-20T08:26:36.573Z,13.30
2022-09-20T08:29:05.955Z,13.50
2022-09-20T08:31:36.829Z,13.30
2022-09-20T08:34:06.776Z,13.40
2022-09-20T08:36:41.096Z,13.50
2022-09-20T08:42:06.854Z,13.60
2022-09-20T08:44:36.934Z,13.80
2022-09-20T08:47:09.880Z,13.90
2022-09-20T08:49:39.002Z,14.00
2022-09-20T08:52:12.162Z,14.10
2022-09-20T08:54:40.865Z,15.00
2022-09-20T08:57:14.565Z,14.40
2022-09-20T08:59:42.674Z,14.50
2022-09-20T09:02:16.978Z,14.60
2022-09-20T09:04:45.390Z,14.70
2022-09-20T09:07:17.174Z,14.80
2022-09-20T09:09:47.337Z,14.80
2022-09-20T09:12:20.205Z,14.80
2022-09-20T09:14:54.774Z,14.90
2022-09-20T09:17:27.295Z,14.90
2022-09-20T09:19:57.037Z,15.00
2022-09-20T09:22:35.262Z,15.00
2022-09-20T09:25:25.254Z,15.20
2022-09-20T09:27:56.274Z,15.20
2022-09-20T09:30:27.326Z,15.20
2022-09-20T09:33:19.464Z,15.30
2022-09-20T09:35:54.900Z,15.20
2022-09-20T09:38:25.843Z,15.30
2022-09-20T09:40:56.245Z,15.40
2022-09-20T09:43:29.071Z,15.80
2022-09-20T09:45:58.041Z,15.50
2022-09-20T09:48:29.162Z,15.60
2022-09-20T09:51:10.152Z,15.60
2022-09-20T09:53:40.437Z,15.70
2022-09-20T09:56:21.717Z,15.90
2022-09-20T09:59:10.622Z,16.00
2022-09-20T10:01:47.396Z,16.10
2022-09-20T10:04:22.122Z,16.00
2022-09-20T10:06:55.933Z,16.20
2022-09-20T10:09:33.407Z,15.90
2022-09-20T10:12:21.863Z,15.80
2022-09-20T10:15:00.856Z,15.70
2022-09-20T10:17:43.946Z,15.90
2022-09-20T10:20:28.205Z,16.10
2022-09-20T10:26:05.693Z,16.40
2022-09-20T10:28:48.470Z,16.40
2022-09-20T10:31:29.710Z,16.40
2022-09-20T10:34:14.279Z,16.40
2022-09-20T10:36:51.186Z,16.60
2022-09-20T10:39:24.939Z,17.00
2022-09-20T10:42:21.796Z,16.80
2022-09-20T10:45:03.926Z,16.80
2022-09-20T10:47:36.004Z,16.60
2022-09-20T10:50:18.974Z,16.60
2022-09-20T10:53:02.766Z,16.60
2022-09-20T10:55:40.367Z,16.90
2022-09-20T10:58:32.597Z,17.10
2022-09-20T11:01:04.385Z,17.20
2022-09-20T11:03:46.914Z,17.20
2022-09-20T11:06:17.574Z,17.10
2022-09-20T11:08:50.811Z,17.30
2022-09-20T11:11:22.931Z,17.90
2022-09-20T11:13:59.323Z,17.60
2022-09-20T11:16:34.079Z,17.40
2022-09-20T11:19:10.196Z,17.60
2022-09-20T11:21:42.865Z,17.40
2022-09-20T11:24:20.653Z,17.50
2022-09-20T11:26:53.402Z,17.50
2022-09-20T11:29:32.274Z,17.40
2022-09-20T11:32:13.770Z,17.20
2022-09-20T11:34:49.991Z,17.20
2022-09-20T11:37:23.341Z,17.70
2022-09-20T11:39:54.973Z,17.70
2022-09-20T11:42:25.765Z,17.70
2022-09-20T11:44:56.046Z,18.20
2022-09-20T11:50:59.870Z,18.20
2022-09-20T11:53:45.797Z,18.20
2022-09-20T11:56:18.937Z,18.40
2022-09-20T11:58:54.058Z,18.40
2022-09-20T12:01:33.042Z,18.50
2022-09-20T12:04:30.649Z,18.60
2022-09-20T12:07:06.047Z,18.90
2022-09-20T12:09:40.938Z,19.10
2022-09-20T12:12:32.118Z,19.30
2022-09-20T12:15:02.606Z,19.50
2022-09-20T12:18:09.588Z,19.60
2022-09-20T12:21:08.281Z,19.70
2022-09-20T12:24:12.741Z,19.30
2022-09-20T12:26:45.842Z,19.20
2022-09-20T12:29:55.810Z,19.70
2022-09-20T12:32:54.941Z,19.70
2022-09-20T12:35:56.934Z,19.60
2022-09-20T12:38:38.815Z,19.80
2022-09-20T12:41:27.594Z,20.00
2022-09-20T12:44:06.021Z,19.80
2022-09-20T12:46:43.585Z,19.50
2022-09-20T12:49:41.427Z,19.30
2022-09-20T12:52:43.922Z,19.10
2022-09-20T12:55:31.872Z,19.00
2022-09-20T12:58:03.530Z,18.90
2022-09-20T13:00:40.819Z,18.80
2022-09-20T13:03:28.391Z,19.20
2022-09-20T13:06:29.925Z,19.50
2022-09-20T13:09:05.980Z,19.80
2022-09-20T13:11:44.684Z,20.10
2022-09-20T13:14:15.796Z,20.60
2022-09-20T13:16:51.974Z,20.70
2022-09-20T13:19:22.155Z,20.70
2022-09-20T13:21:58.089Z,20.50
2022-09-20T13:24:27.765Z,21.10
2022-09-20T13:27:02.365Z,21.40
2022-09-20T13:29:35.830Z,21.50
2022-09-20T13:32:17.636Z,22.20
2022-09-20T13:34:47.950Z,22.20
2022-09-20T13:37:23.461Z,22.40
2022-09-20T13:39:55.501Z,22.70
2022-09-20T13:42:25.179Z,23.10
2022-09-20T13:44:55.325Z,23.10
2022-09-20T13:47:29.438Z,23.20
2022-09-20T13:50:11.234Z,23.10
2022-09-20T13:52:47.177Z,23.10
2022-09-20T13:55:31.920Z,22.90
2022-09-20T13:58:07.252Z,22.70
2022-09-20T14:00:38.240Z,23.20
2022-09-20T14:03:09.234Z,23.40
2022-09-20T14:05:37.189Z,23.30
2022-09-20T14:08:14.191Z,23.10
2022-09-20T14:10:47.592Z,23.40
2022-09-20T14:13:18.379Z,23.50
2022-09-20T14:15:48.479Z,23.70
2022-09-20T14:18:19.942Z,24.30
2022-09-20T14:20:49.827Z,24.10
2022-09-20T14:23:23.076Z,24.50
2022-09-20T14:26:23.883Z,24.50
2022-09-20T14:28:53.601Z,24.70
2022-09-20T14:31:24.917Z,24.50
2022-09-20T14:33:55.572Z,24.60
2022-09-20T14:36:25.575Z,25.40
2022-09-20T14:38:57.173Z,25.40
2022-09-20T14:41:33.615Z,24.90
2022-09-20T14:44:04.311Z,24.90
2022-09-20T14:46:35.936Z,24.90
2022-09-20T14:49:30.444Z,24.90
2022-09-20T14:52:31.466Z,25.00
2022-09-20T14:55:01.528Z,24.90
2022-09-20T14:57:29.706Z,24.70
2022-09-20T14:59:59.181Z,24.90
2022-09-20T15:02:27.758Z,25.40
2022-09-20T15:05:00.218Z,25.20
2022-09-20T15:07:28.194Z,24.50
2022-09-20T15:09:56.078Z,24.50
2022-09-20T15:12:24.219Z,25.00
2022-09-20T15:14:52.293Z,25.20
2022-09-20T15:17:23.585Z,25.00
2022-09-20T15:19:51.509Z,25.10
2022-09-20T15:22:19.391Z,24.90
2022-09-20T15:24:47.412Z,24.90
2022-09-20T15:27:15.730Z,24.90
2022-09-20T15:29:43.591Z,24.70
2022-09-20T15:32:12.050Z,24.40
2022-09-20T15:34:41.314Z,24.30
2022-09-20T15:37:09.233Z,24.20
2022-09-20T15:39:37.161Z,24.00
2022-09-20T15:42:05.706Z,23.90
2022-09-20T15:44:34.002Z,23.80
2022-09-20T15:47:03.122Z,23.70
2022-09-20T15:49:33.277Z,23.50
2022-09-20T15:52:02.833Z,23.00
2022-09-20T15:54:30.755Z,22.80
2022-09-20T15:56:58.690Z,22.50
2022-09-20T15:59:28.472Z,22.00
2022-09-20T16:01:56.413Z,21.80
2022-09-20T16:04:26.030Z,21.60
2022-09-20T16:06:54.443Z,21.50
2022-09-20T16:09:23.691Z,21.20
2022-09-20T16:11:51.834Z,21.00
2022-09-20T16:14:19.750Z,20.90
2022-09-20T16:16:47.663Z,20.50
2022-09-20T16:19:17.914Z,20.50
2022-09-20T16:21:51.328Z,20.20
2022-09-20T16:24:26.141Z,20.20
2022-09-20T16:26:54.533Z,19.80
2022-09-20T16:29:23.477Z,19.90
2022-09-20T16:31:52.241Z,19.60
2022-09-20T16:34:21.945Z,19.40
2022-09-20T16:36:51.514Z,19.20
2022-09-20T16:39:20.701Z,19.20
2022-09-20T16:41:52.902Z,19.20
2022-09-20T16:44:20.634Z,19.00
2022-09-20T16:46:48.667Z,19.10
2022-09-20T16:49:17.110Z,18.80
2022-09-20T16:51:46.348Z,18.50
2022-09-20T16:54:16.315Z,18.50
2022-09-20T16:56:46.385Z,18.30
2022-09-20T16:59:17.151Z,18.10
2022-09-20T17:01:45.951Z,18.10
2022-09-20T17:04:15.008Z,18.00
2022-09-20T17:06:44.195Z,17.90
2022-09-20T17:09:12.634Z,17.90
2022-09-20T17:11:42.081Z,17.70
2022-09-20T17:14:10.199Z,17.60
2022-09-20T17:16:41.993Z,17.50
2022-09-20T17:19:11.721Z,17.50
2022-09-20T17:21:43.389Z,17.30
2022-09-20T17:24:11.745Z,17.20
2022-09-20T17:26:41.685Z,17.10
2022-09-20T17:29:13.033Z,17.10
2022-09-20T17:31:44.027Z,16.90
2022-09-20T17:34:13.562Z,16.80
2022-09-20T17:36:43.178Z,16.80
2022-09-20T17:39:12.988Z,16.70
2022-09-20T17:41:41.886Z,16.60
2022-09-20T17:44:11.813Z,16.50
2022-09-20T17:46:42.704Z,16.40
2022-09-20T17:49:12.457Z,16.30
2022-09-20T17:51:42.508Z,16.20
2022-09-20T17:54:13.674Z,16.10
2022-09-20T17:56:42.427Z,16.00
2022-09-20T17:59:11.593Z,15.90
2022-09-20T18:01:40.383Z,15.80
2022-09-20T18:04:10.582Z,15.70
2022-09-20T18:06:42.097Z,15.60
2022-09-20T18:09:11.606Z,15.50
2022-09-20T18:11:41.754Z,15.40
2022-09-20T18:14:11.269Z,15.30
2022-09-20T18:16:39.566Z,15.20
2022-09-20T18:19:09.932Z,15.70
2022-09-20T18:21:39.316Z,16.00
2022-09-20T18:24:08.634Z,15.00
2022-09-20T18:26:38.236Z,14.90
2022-09-20T18:29:08.025Z,14.80
2022-09-20T18:31:37.374Z,14.80
2022-09-20T18:34:07.223Z,14.60
2022-09-20T18:36:38.385Z,14.50
2022-09-20T18:39:07.609Z,14.50
2022-09-20T18:41:38.105Z,14.40
2022-09-20T18:44:08.206Z,14.40
2022-09-20T18:46:38.805Z,14.30
2022-09-20T18:49:09.397Z,14.30
2022-09-20T18:51:40.426Z,14.20
2022-09-20T18:54:10.214Z,14.20
2022-09-20T18:56:39.819Z,14.20
2022-09-20T18:59:13.910Z,14.30
2022-09-20T19:02:07.617Z,14.20
2022-09-20T19:05:17.541Z,14.10
2022-09-20T19:08:02.683Z,14.10
2022-09-20T19:10:41.383Z,14.00
2022-09-20T19:13:30.518Z,13.90
2022-09-20T19:16:18.615Z,13.90
2022-09-20T19:19:03.555Z,13.80
2022-09-20T19:21:38.498Z,13.70
2022-09-20T19:24:21.682Z,13.60
2022-09-20T19:26:50.360Z,13.60
2022-09-20T19:29:20.738Z,13.50
2022-09-20T19:31:50.358Z,13.40
2022-09-20T19:34:21.452Z,13.40
2022-09-20T19:37:01.780Z,13.30
2022-09-20T19:39:47.855Z,13.20
2022-09-20T19:42:28.623Z,13.20
2022-09-20T19:45:08.718Z,13.10
2022-09-20T19:47:48.552Z,13.10
2022-09-20T19:50:27.756Z,13.00
2022-09-20T19:52:56.950Z,12.00
2022-09-20T19:55:27.206Z,12.90
2022-09-20T19:57:55.754Z,12.90
2022-09-20T20:00:24.437Z,12.80
2022-09-20T20:02:53.869Z,12.80
2022-09-20T20:05:25.564Z,12.70
2022-09-20T20:08:03.586Z,12.70
2022-09-20T20:10:38.498Z,12.90
2022-09-20T20:13:29.561Z,12.60
2022-09-20T20:16:02.797Z,12.50
2022-09-20T20:18:38.898Z,12.50
2022-09-20T20:21:15.333Z,12.50
2022-09-20T20:24:04.523Z,12.50
2022-09-20T20:26:34.882Z,12.50
2022-09-20T20:29:02.833Z,12.50
2022-09-20T20:31:31.112Z,12.40
2022-09-20T20:33:59.117Z,12.50
2022-09-20T20:36:27.004Z,12.40
2022-09-20T20:38:55.118Z,12.50
2022-09-20T20:41:23.713Z,12.50
2022-09-20T20:43:57.019Z,12.50
2022-09-20T20:46:25.771Z,12.50
2022-09-20T20:48:53.861Z,12.50
2022-09-20T20:51:23.623Z,12.50
2022-09-20T20:53:53.241Z,12.50
2022-09-20T20:56:22.702Z,12.50
2022-09-20T20:58:50.806Z,12.60
2022-09-20T21:01:21.560Z,12.60
2022-09-20T21:03:52.025Z,12.60
2022-09-20T21:06:20.652Z,12.60
2022-09-20T21:08:50.063Z,12.60
2022-09-20T21:11:21.920Z,12.60
2022-09-20T21:13:49.989Z,12.60
2022-09-20T21:16:21.811Z,12.60
2022-09-20T21:18:51.073Z,12.60
2022-09-20T21:21:21.093Z,12.60
2022-09-20T21:23:50.483Z,12.60
2022-09-20T21:26:18.754Z,12.60
2022-09-20T21:28:51.404Z,12.60
2022-09-20T21:31:22.415Z,12.70
2022-09-20T21:33:50.700Z,12.70
2022-09-20T21:36:21.357Z,12.70
2022-09-20T21:38:49.250Z,12.70
2022-09-20T21:41:19.821Z,12.70
2022-09-20T21:43:48.920Z,12.60
2022-09-20T21:46:18.926Z,12.60
2022-09-20T21:48:49.301Z,12.60
2022-09-20T21:51:20.375Z,12.60
2022-09-20T21:53:50.462Z,12.60
2022-09-20T21:56:21.140Z,12.50
2022-09-20T21:58:49.501Z,12.50
2022-09-20T22:01:21.777Z,12.40
2022-09-20T22:03:53.962Z,12.40
2022-09-20T22:06:25.631Z,12.40
2022-09-20T22:08:56.606Z,12.40
2022-09-20T22:11:30.577Z,12.30
2022-09-20T22:14:01.433Z,12.30
2022-09-20T22:16:31.057Z,12.20
2022-09-20T22:19:01.505Z,12.20
2022-09-20T22:21:33.550Z,12.10
2022-09-20T22:24:07.758Z,12.10
2022-09-20T22:26:38.209Z,12.00
2022-09-20T22:29:07.655Z,12.00
2022-09-20T22:31:37.584Z,11.90
2022-09-20T22:34:08.235Z,11.90
2022-09-20T22:36:38.472Z,11.90
2022-09-20T22:39:08.826Z,11.80
2022-09-20T22:41:37.823Z,11.80
2022-09-20T22:44:06.313Z,11.70
2022-09-20T22:46:35.197Z,11.70
2022-09-20T22:49:05.052Z,11.70
2022-09-20T22:51:34.560Z,11.60
2022-09-20T22:54:06.761Z,11.60
2022-09-20T22:56:34.936Z,11.60
2022-09-20T22:59:06.467Z,11.50
2022-09-20T23:01:36.037Z,11.50
2022-09-20T23:04:07.597Z,11.40
2022-09-20T23:06:39.187Z,11.40
2022-09-20T23:09:09.701Z,11.50
2022-09-20T23:11:38.638Z,11.40
2022-09-20T23:14:07.149Z,11.40
2022-09-20T23:16:36.682Z,11.40
2022-09-20T23:19:06.399Z,11.30
2022-09-20T23:21:35.606Z,11.30
2022-09-20T23:24:06.481Z,11.30
2022-09-20T23:26:36.653Z,11.40
2022-09-20T23:29:06.961Z,11.30
2022-09-20T23:31:36.493Z,11.30
2022-09-20T23:34:07.302Z,11.30
2022-09-20T23:36:38.049Z,11.30
2022-09-20T23:39:08.036Z,11.30
2022-09-20T23:41:36.934Z,11.30
2022-09-20T23:44:06.112Z,11.30
2022-09-20T23:46:34.318Z,11.30
2022-09-20T23:49:02.257Z,11.30
2022-09-20T23:51:30.738Z,11.30
2022-09-20T23:53:58.641Z,11.30
2022-09-20T23:56:28.847Z,11.20
2022-09-20T23:58:57.080Z,11.30
